Verda, Louisiana
Current Conditions -  °F | °C
As of 6:15 PM on Friday 28 Nov 2014 (Local Time) from KIER Reporting Station
Clear Clear  
Wind Chill: 54°   Ceiling: Unl
Heat Index: 54°   Visibility: 10mi
Dew Point: 47°   Wind: 7mph
Humidity: 76%   Direction: 170°S
Pressure: 30.18"   Gusts: NA
Location:  31.7°N, 92.77°W
Report Text: KIER 290015Z AUTO 17006KT 10SM CLR 12/08 A3018 RMK AO2 T01240082
Loading
Personal Weather Stations






























Interactive Weather Map New forecast layout! Learn more

10-Day Weather Forecast

Advertisements
Track Severe Weather on mobile